createdAt,value
2022-09-11T00:01:13.719Z,100.00
2022-09-11T00:03:42.787Z,100.00
2022-09-11T00:06:12.684Z,100.00
2022-09-11T00:08:41.257Z,100.00
2022-09-11T00:11:17.596Z,100.00
2022-09-11T00:13:47.623Z,100.00
2022-09-11T00:16:28.609Z,100.00
2022-09-11T00:18:59.561Z,100.00
2022-09-11T00:21:27.567Z,100.00
2022-09-11T00:23:54.512Z,100.00
2022-09-11T00:26:22.724Z,100.00
2022-09-11T00:28:50.735Z,100.00
2022-09-11T00:31:20.595Z,100.00
2022-09-11T00:33:48.526Z,100.00
2022-09-11T00:36:18.409Z,100.00
2022-09-11T00:38:46.413Z,100.00
2022-09-11T00:41:19.991Z,100.00
2022-09-11T00:44:08.416Z,100.00
2022-09-11T00:46:41.385Z,100.00
2022-09-11T00:49:40.794Z,100.00
2022-09-11T00:52:23.153Z,100.00
2022-09-11T00:55:15.217Z,100.00
2022-09-11T00:57:46.996Z,100.00
2022-09-11T01:00:14.226Z,100.00
2022-09-11T01:02:43.027Z,100.00
2022-09-11T01:05:11.496Z,100.00
2022-09-11T01:07:40.214Z,100.00
2022-09-11T01:10:09.076Z,100.00
2022-09-11T01:12:53.917Z,100.00
2022-09-11T01:15:27.494Z,100.00
2022-09-11T01:18:09.539Z,100.00
2022-09-11T01:20:43.489Z,100.00
2022-09-11T01:23:21.106Z,100.00
2022-09-11T01:26:07.573Z,100.00
2022-09-11T01:28:43.501Z,100.00
2022-09-11T01:31:15.654Z,100.00
2022-09-11T01:33:55.081Z,100.00
2022-09-11T01:36:31.186Z,100.00
2022-09-11T01:39:02.321Z,100.00
2022-09-11T01:41:40.507Z,100.00
2022-09-11T01:44:19.104Z,100.00
2022-09-11T01:46:50.050Z,100.00
2022-09-11T01:49:50.972Z,100.00
2022-09-11T01:52:28.101Z,100.00
2022-09-11T01:55:09.526Z,100.00
2022-09-11T01:57:47.752Z,100.00
2022-09-11T02:00:16.354Z,100.00
2022-09-11T02:02:56.249Z,100.00
2022-09-11T02:05:29.114Z,100.00
2022-09-11T02:08:22.908Z,100.00
2022-09-11T02:10:54.037Z,100.00
2022-09-11T02:13:37.105Z,100.00
2022-09-11T02:16:14.684Z,100.00
2022-09-11T02:18:49.397Z,100.00
2022-09-11T02:21:16.474Z,100.00
2022-09-11T02:23:43.555Z,100.00
2022-09-11T02:26:13.184Z,100.00
2022-09-11T02:28:40.478Z,100.00
2022-09-11T02:31:08.123Z,100.00
2022-09-11T02:33:36.918Z,100.00
2022-09-11T02:36:12.243Z,100.00
2022-09-11T02:38:54.480Z,100.00
2022-09-11T02:41:29.361Z,100.00
2022-09-11T02:44:25.038Z,100.00
2022-09-11T02:47:08.230Z,100.00
2022-09-11T02:49:56.115Z,100.00
2022-09-11T02:52:54.670Z,100.00
2022-09-11T02:55:35.984Z,100.00
2022-09-11T02:58:20.836Z,100.00
2022-09-11T03:00:48.728Z,100.00
2022-09-11T03:03:16.004Z,100.00
2022-09-11T03:05:43.317Z,100.00
2022-09-11T03:08:11.698Z,100.00
2022-09-11T03:10:39.199Z,100.00
2022-09-11T03:13:09.394Z,100.00
2022-09-11T03:15:36.319Z,100.00
2022-09-11T03:18:05.219Z,100.00
2022-09-11T03:20:32.111Z,100.00
2022-09-11T03:22:59.074Z,100.00
2022-09-11T03:25:28.419Z,100.00
2022-09-11T03:27:57.172Z,100.00
2022-09-11T03:30:23.958Z,100.00
2022-09-11T03:32:51.258Z,100.00
2022-09-11T03:35:18.701Z,100.00
2022-09-11T03:37:47.119Z,100.00
2022-09-11T03:40:14.247Z,100.00
2022-09-11T03:42:42.022Z,100.00
2022-09-11T03:45:09.538Z,100.00
2022-09-11T03:47:37.305Z,100.00
2022-09-11T03:50:04.924Z,100.00
2022-09-11T03:52:32.654Z,100.00
2022-09-11T03:55:00.394Z,100.00
2022-09-11T03:57:27.588Z,100.00
2022-09-11T03:59:56.759Z,100.00
2022-09-11T04:02:24.127Z,100.00
2022-09-11T04:04:52.871Z,100.00
2022-09-11T04:07:21.164Z,100.00
2022-09-11T04:09:49.368Z,100.00
2022-09-11T04:12:19.628Z,100.00
2022-09-11T04:14:46.494Z,100.00
2022-09-11T04:17:13.594Z,100.00
2022-09-11T04:19:40.452Z,100.00
2022-09-11T04:22:07.568Z,100.00
2022-09-11T04:24:40.102Z,100.00
2022-09-11T04:27:07.008Z,100.00
2022-09-11T04:29:34.044Z,100.00
2022-09-11T04:32:02.078Z,100.00
2022-09-11T04:34:32.871Z,100.00
2022-09-11T04:36:59.898Z,100.00
2022-09-11T04:39:30.790Z,100.00
2022-09-11T04:41:58.078Z,100.00
2022-09-11T04:44:26.331Z,100.00
2022-09-11T04:46:56.417Z,100.00
2022-09-11T04:49:24.700Z,100.00
2022-09-11T04:51:51.528Z,100.00
2022-09-11T04:54:21.416Z,100.00
2022-09-11T04:56:49.649Z,100.00
2022-09-11T04:59:22.579Z,100.00
2022-09-11T05:02:04.305Z,100.00
2022-09-11T05:04:31.571Z,100.00
2022-09-11T05:07:01.908Z,100.00
2022-09-11T05:09:29.901Z,100.00
2022-09-11T05:11:58.520Z,100.00
2022-09-11T05:14:32.761Z,100.00
2022-09-11T05:17:01.959Z,100.00
2022-09-11T05:19:30.390Z,100.00
2022-09-11T05:21:58.026Z,100.00
2022-09-11T05:24:25.541Z,100.00
2022-09-11T05:26:52.894Z,100.00
2022-09-11T05:29:20.849Z,100.00
2022-09-11T05:31:55.423Z,100.00
2022-09-11T05:34:22.673Z,100.00
2022-09-11T05:36:51.388Z,100.00
2022-09-11T05:39:18.917Z,100.00
2022-09-11T05:41:49.926Z,100.00
2022-09-11T05:44:17.856Z,100.00
2022-09-11T05:46:44.808Z,100.00
2022-09-11T05:49:12.967Z,100.00
2022-09-11T05:51:41.762Z,100.00
2022-09-11T05:54:08.763Z,100.00
2022-09-11T05:56:35.818Z,100.00
2022-09-11T05:59:16.267Z,100.00
2022-09-11T06:01:45.628Z,100.00
2022-09-11T06:04:22.011Z,100.00
2022-09-11T06:06:52.121Z,100.00
2022-09-11T06:09:20.615Z,100.00
2022-09-11T06:11:47.553Z,100.00
2022-09-11T06:14:14.857Z,100.00
2022-09-11T06:16:44.596Z,100.00
2022-09-11T06:19:15.170Z,100.00
2022-09-11T06:21:42.519Z,100.00
2022-09-11T06:24:23.726Z,100.00
2022-09-11T06:26:51.317Z,100.00
2022-09-11T06:29:19.577Z,100.00
2022-09-11T06:31:51.543Z,100.00
2022-09-11T06:34:22.947Z,100.00
2022-09-11T06:36:52.355Z,100.00
2022-09-11T06:39:20.516Z,100.00
2022-09-11T06:41:47.539Z,100.00
2022-09-11T06:44:16.034Z,100.00
2022-09-11T06:46:42.959Z,100.00
2022-09-11T06:49:11.936Z,100.00
2022-09-11T06:51:59.527Z,100.00
2022-09-11T06:54:26.607Z,100.00
2022-09-11T06:56:54.893Z,100.00
2022-09-11T06:59:23.948Z,100.00
2022-09-11T07:01:51.812Z,100.00
2022-09-11T07:04:19.115Z,100.00
2022-09-11T07:06:50.021Z,100.00
2022-09-11T07:09:17.229Z,100.00
2022-09-11T07:11:50.261Z,100.00
2022-09-11T07:14:21.442Z,100.00
2022-09-11T07:16:52.940Z,100.00
2022-09-11T07:19:19.886Z,100.00
2022-09-11T07:21:47.254Z,100.00
2022-09-11T07:24:14.446Z,100.00
2022-09-11T07:26:44.010Z,100.00
2022-09-11T07:29:18.062Z,100.00
2022-09-11T07:31:46.572Z,100.00
2022-09-11T07:34:15.069Z,100.00
2022-09-11T07:36:43.304Z,100.00
2022-09-11T07:39:10.349Z,100.00
2022-09-11T07:41:46.699Z,100.00
2022-09-11T07:44:18.705Z,100.00
2022-09-11T07:46:45.662Z,100.00
2022-09-11T07:49:13.195Z,100.00
2022-09-11T07:51:42.737Z,100.00
2022-09-11T07:54:12.535Z,100.00
2022-09-11T07:56:41.733Z,100.00
2022-09-11T07:59:11.233Z,100.00
2022-09-11T08:01:44.050Z,100.00
2022-09-11T08:04:12.319Z,100.00
2022-09-11T08:06:40.689Z,100.00
2022-09-11T08:09:15.717Z,100.00
2022-09-11T08:11:49.069Z,100.00
2022-09-11T08:14:18.195Z,100.00
2022-09-11T08:16:48.408Z,100.00
2022-09-11T08:19:22.793Z,100.00
2022-09-11T08:21:55.338Z,100.00
2022-09-11T08:24:24.441Z,100.00
2022-09-11T08:26:57.273Z,100.00
2022-09-11T08:29:26.176Z,100.00
2022-09-11T08:31:53.690Z,100.00
2022-09-11T08:34:22.424Z,100.00
2022-09-11T08:36:52.016Z,100.00
2022-09-11T08:39:20.393Z,100.00
2022-09-11T08:41:59.339Z,100.00
2022-09-11T08:44:37.262Z,100.00
2022-09-11T08:47:22.829Z,100.00
2022-09-11T08:49:59.281Z,100.00
2022-09-11T08:52:28.651Z,100.00
2022-09-11T08:54:59.234Z,100.00
2022-09-11T08:57:43.394Z,100.00
2022-09-11T09:00:22.708Z,100.00
2022-09-11T09:03:06.667Z,100.00
2022-09-11T09:06:11.549Z,100.00
2022-09-11T09:08:58.552Z,100.00
2022-09-11T09:11:46.787Z,100.00
2022-09-11T09:14:28.919Z,100.00
2022-09-11T09:17:02.649Z,100.00
2022-09-11T09:19:40.345Z,100.00
2022-09-11T09:22:34.943Z,100.00
2022-09-11T09:25:09.973Z,100.00
2022-09-11T09:27:47.692Z,100.00
2022-09-11T09:30:27.307Z,100.00
2022-09-11T09:33:00.331Z,100.00
2022-09-11T09:35:41.215Z,100.00
2022-09-11T09:38:21.787Z,100.00
2022-09-11T09:41:00.881Z,100.00
2022-09-11T09:43:49.522Z,100.00
2022-09-11T09:46:41.946Z,100.00
2022-09-11T09:49:17.775Z,100.00
2022-09-11T09:51:44.892Z,100.00
2022-09-11T09:54:16.857Z,100.00
2022-09-11T09:57:21.699Z,100.00
2022-09-11T09:59:57.345Z,100.00
2022-09-11T10:02:55.222Z,100.00
2022-09-11T10:05:42.494Z,100.00
2022-09-11T10:08:30.201Z,100.00
2022-09-11T10:11:00.341Z,100.00
2022-09-11T10:13:30.891Z,100.00
2022-09-11T10:16:03.937Z,100.00
2022-09-11T10:18:42.975Z,100.00
2022-09-11T10:21:13.137Z,100.00
2022-09-11T10:23:57.303Z,100.00
2022-09-11T10:26:32.339Z,100.00
2022-09-11T10:29:07.803Z,100.00
2022-09-11T10:31:38.876Z,100.00
2022-09-11T10:34:06.210Z,100.00
2022-09-11T10:36:35.155Z,100.00
2022-09-11T10:39:02.514Z,100.00
2022-09-11T10:41:34.249Z,100.00
2022-09-11T10:44:11.484Z,100.00
2022-09-11T10:46:41.075Z,100.00
2022-09-11T10:49:16.861Z,100.00
2022-09-11T10:51:59.338Z,100.00
2022-09-11T10:55:15.800Z,100.00
2022-09-11T10:57:50.421Z,100.00
2022-09-11T11:00:23.229Z,100.00
2022-09-11T11:03:06.123Z,100.00
2022-09-11T11:05:51.852Z,100.00
2022-09-11T11:08:31.906Z,100.00
2022-09-11T11:11:03.886Z,100.00
2022-09-11T11:14:07.245Z,100.00
2022-09-11T11:17:12.250Z,100.00
2022-09-11T11:20:16.992Z,100.00
2022-09-11T11:23:05.189Z,100.00
2022-09-11T11:26:06.447Z,100.00
2022-09-11T11:28:57.039Z,100.00
2022-09-11T11:31:49.466Z,100.00
2022-09-11T11:34:35.889Z,100.00
2022-09-11T11:37:05.994Z,100.00
2022-09-11T11:40:00.230Z,100.00
2022-09-11T11:42:35.703Z,100.00
2022-09-11T11:45:12.093Z,100.00
2022-09-11T11:47:43.493Z,100.00
2022-09-11T11:50:29.852Z,100.00
2022-09-11T11:53:23.260Z,100.00
2022-09-11T11:56:34.046Z,100.00
2022-09-11T11:59:15.592Z,100.00
2022-09-11T12:01:48.358Z,100.00
2022-09-11T12:04:40.531Z,100.00
2022-09-11T12:07:16.345Z,98.99
2022-09-11T12:09:51.517Z,97.57
2022-09-11T12:12:21.328Z,98.27
2022-09-11T12:14:51.593Z,98.82
2022-09-11T12:17:30.132Z,99.93
2022-09-11T12:20:12.314Z,99.30
2022-09-11T12:22:51.435Z,99.79
2022-09-11T12:25:21.738Z,96.59
2022-09-11T12:27:53.103Z,96.17
2022-09-11T12:30:28.009Z,96.57
2022-09-11T12:33:02.342Z,97.61
2022-09-11T12:35:44.476Z,96.67
2022-09-11T12:38:31.592Z,94.99
2022-09-11T12:41:03.591Z,98.23
2022-09-11T12:43:36.746Z,89.64
2022-09-11T12:46:11.520Z,92.09
2022-09-11T12:48:42.797Z,92.17
2022-09-11T12:51:19.397Z,94.84
2022-09-11T12:53:50.359Z,91.59
2022-09-11T12:56:21.882Z,93.06
2022-09-11T12:58:57.872Z,96.38
2022-09-11T13:01:31.001Z,92.95
2022-09-11T13:04:12.284Z,94.66
2022-09-11T13:06:48.653Z,89.19
2022-09-11T13:09:28.096Z,94.41
2022-09-11T13:12:18.254Z,94.55
2022-09-11T13:14:49.068Z,90.12
2022-09-11T13:17:26.626Z,93.43
2022-09-11T13:19:57.816Z,94.22
2022-09-11T13:22:27.762Z,92.32
2022-09-11T13:25:22.531Z,91.05
2022-09-11T13:27:51.719Z,88.88
2022-09-11T13:30:22.165Z,91.40
2022-09-11T13:33:16.352Z,89.61
2022-09-11T13:35:45.604Z,91.24
2022-09-11T13:38:23.375Z,87.51
2022-09-11T13:40:58.820Z,90.35
2022-09-11T13:43:30.710Z,89.11
2022-09-11T13:46:10.155Z,83.93
2022-09-11T13:48:37.629Z,80.30
2022-09-11T13:51:06.205Z,80.42
2022-09-11T13:53:35.458Z,79.72
2022-09-11T13:56:02.602Z,76.74
2022-09-11T13:58:32.886Z,73.05
2022-09-11T14:01:19.423Z,74.10
2022-09-11T14:03:48.966Z,75.82
2022-09-11T14:06:19.013Z,71.38
2022-09-11T14:08:56.123Z,71.45
2022-09-11T14:11:31.943Z,67.59
2022-09-11T14:14:07.722Z,66.34
2022-09-11T14:16:45.150Z,62.43
2022-09-11T14:19:32.080Z,58.55
2022-09-11T14:22:00.000Z,59.33
2022-09-11T14:24:38.485Z,56.85
2022-09-11T14:27:30.695Z,57.18
2022-09-11T14:29:58.047Z,57.67
2022-09-11T14:32:28.248Z,57.01
2022-09-11T14:34:55.386Z,57.10
2022-09-11T14:37:23.906Z,57.05
2022-09-11T14:40:00.261Z,56.89
2022-09-11T14:42:29.852Z,57.35
2022-09-11T14:44:56.915Z,56.88
2022-09-11T14:47:29.436Z,57.24
2022-09-11T14:49:57.626Z,58.05
2022-09-11T14:52:27.171Z,58.01
2022-09-11T14:54:54.365Z,57.78
2022-09-11T14:57:26.356Z,57.35
2022-09-11T14:59:53.490Z,58.14
2022-09-11T15:02:23.470Z,58.11
2022-09-11T15:04:53.478Z,57.19
2022-09-11T15:07:24.938Z,58.00
2022-09-11T15:09:52.945Z,55.43
2022-09-11T15:12:21.862Z,52.48
2022-09-11T15:14:57.201Z,52.76
2022-09-11T15:17:25.790Z,52.25
2022-09-11T15:19:53.483Z,52.33
2022-09-11T15:22:20.495Z,53.42
2022-09-11T15:24:49.085Z,51.94
2022-09-11T15:27:17.273Z,51.32
2022-09-11T15:29:44.138Z,52.85
2022-09-11T15:32:11.476Z,51.82
2022-09-11T15:34:42.175Z,51.95
2022-09-11T15:37:09.322Z,51.27
2022-09-11T15:39:36.348Z,51.71
2022-09-11T15:42:03.712Z,51.12
2022-09-11T15:44:30.547Z,51.67
2022-09-11T15:46:58.963Z,52.57
2022-09-11T15:49:29.342Z,52.21
2022-09-11T15:51:57.953Z,52.34
2022-09-11T15:54:25.820Z,52.49
2022-09-11T15:56:53.081Z,52.62
2022-09-11T15:59:20.450Z,52.17
2022-09-11T16:01:47.347Z,53.64
2022-09-11T16:04:19.281Z,50.84
2022-09-11T16:06:48.487Z,50.08
2022-09-11T16:09:27.556Z,50.16
2022-09-11T16:11:54.822Z,48.90
2022-09-11T16:14:36.681Z,55.26
2022-09-11T16:17:06.758Z,57.23
2022-09-11T16:19:34.864Z,58.99
2022-09-11T16:22:04.200Z,60.48
2022-09-11T16:24:35.646Z,62.28
2022-09-11T16:27:05.487Z,63.95
2022-09-11T16:29:56.600Z,65.03
2022-09-11T16:32:28.653Z,66.63
2022-09-11T16:34:57.238Z,67.70
2022-09-11T16:37:26.064Z,68.88
2022-09-11T16:39:53.097Z,69.86
2022-09-11T16:42:21.284Z,70.76
2022-09-11T16:44:49.735Z,72.47
2022-09-11T16:47:17.557Z,71.49
2022-09-11T16:50:13.735Z,71.93
2022-09-11T16:52:32.444Z,71.85
2022-09-11T16:54:59.765Z,72.98
2022-09-11T16:57:27.497Z,73.09
2022-09-11T16:59:54.570Z,72.89
2022-09-11T17:02:21.869Z,72.86
2022-09-11T17:04:48.812Z,72.51
2022-09-11T17:07:16.370Z,72.10
2022-09-11T17:09:45.896Z,72.27
2022-09-11T17:12:13.219Z,71.71
2022-09-11T17:14:39.987Z,72.88
2022-09-11T17:17:07.054Z,72.10
2022-09-11T17:19:34.376Z,73.08
2022-09-11T17:22:01.696Z,73.57
2022-09-11T17:24:28.896Z,73.97
2022-09-11T17:26:56.219Z,75.39
2022-09-11T17:29:23.193Z,74.86
2022-09-11T17:32:01.137Z,74.11
2022-09-11T17:34:37.420Z,73.72
2022-09-11T17:37:04.787Z,73.71
2022-09-11T17:39:31.658Z,73.33
2022-09-11T17:41:58.589Z,73.30
2022-09-11T17:44:25.813Z,72.94
2022-09-11T17:46:52.583Z,73.03
2022-09-11T17:49:21.015Z,72.87
2022-09-11T17:51:49.078Z,72.74
2022-09-11T17:54:16.918Z,72.41
2022-09-11T17:56:43.815Z,72.58
2022-09-11T17:59:10.938Z,71.76
2022-09-11T18:01:38.316Z,71.97
2022-09-11T18:04:05.709Z,71.65
2022-09-11T18:06:36.870Z,71.87
2022-09-11T18:09:16.131Z,71.59
2022-09-11T18:11:45.299Z,71.71
2022-09-11T18:14:13.956Z,71.26
2022-09-11T18:16:42.197Z,71.53
2022-09-11T18:19:12.171Z,71.40
2022-09-11T18:21:39.419Z,70.76
2022-09-11T18:24:09.698Z,70.33
2022-09-11T18:26:40.077Z,68.63
2022-09-11T18:29:10.504Z,68.91
2022-09-11T18:31:40.423Z,68.66
2022-09-11T18:34:10.509Z,68.49
2022-09-11T18:36:37.854Z,69.55
2022-09-11T18:39:05.537Z,67.25
2022-09-11T18:41:37.056Z,66.97
2022-09-11T18:44:10.455Z,67.95
2022-09-11T18:46:37.705Z,66.99
2022-09-11T18:49:05.493Z,68.05
2022-09-11T18:51:32.969Z,67.70
2022-09-11T18:54:00.252Z,68.13
2022-09-11T18:56:28.639Z,67.70
2022-09-11T18:58:56.152Z,68.06
2022-09-11T19:01:25.757Z,67.75
2022-09-11T19:03:53.525Z,67.74
2022-09-11T19:06:23.152Z,67.87
2022-09-11T19:08:51.997Z,66.90
2022-09-11T19:11:24.913Z,66.93
2022-09-11T19:13:54.534Z,66.87
2022-09-11T19:16:21.945Z,67.12
2022-09-11T19:18:49.365Z,66.68
2022-09-11T19:21:22.355Z,65.56
2022-09-11T19:23:51.753Z,65.49
2022-09-11T19:26:22.057Z,65.47
2022-09-11T19:28:50.433Z,64.88
2022-09-11T19:31:21.205Z,64.00
2022-09-11T19:33:48.569Z,63.64
2022-09-11T19:36:17.965Z,63.13
2022-09-11T19:38:46.391Z,62.99
2022-09-11T19:41:16.199Z,62.96
2022-09-11T19:43:44.410Z,63.64
2022-09-11T19:46:13.070Z,63.28
2022-09-11T19:48:41.100Z,63.45
2022-09-11T19:51:13.900Z,63.21
2022-09-11T19:53:42.127Z,63.60
2022-09-11T19:56:10.753Z,63.98
2022-09-11T19:58:38.905Z,64.43
2022-09-11T20:01:14.395Z,64.13
2022-09-11T20:03:43.321Z,63.89
2022-09-11T20:06:11.840Z,62.92
2022-09-11T20:08:42.921Z,63.21
2022-09-11T20:11:13.322Z,62.91
2022-09-11T20:13:40.593Z,63.67
2022-09-11T20:16:11.108Z,63.59
2022-09-11T20:18:38.665Z,62.96
2022-09-11T20:21:09.502Z,63.30
2022-09-11T20:23:37.091Z,63.84
2022-09-11T20:26:17.717Z,63.79
2022-09-11T20:28:46.707Z,63.88
2022-09-11T20:31:22.446Z,63.62
2022-09-11T20:33:50.056Z,63.73
2022-09-11T20:36:18.359Z,63.66
2022-09-11T20:38:50.263Z,64.53
2022-09-11T20:41:17.277Z,64.26
2022-09-11T20:43:44.523Z,63.98
2022-09-11T20:46:11.428Z,63.96
2022-09-11T20:48:38.542Z,64.04
2022-09-11T20:51:12.232Z,63.94
2022-09-11T20:53:41.848Z,64.15
2022-09-11T20:56:11.509Z,63.79
2022-09-11T20:58:39.269Z,64.38
2022-09-11T21:01:07.921Z,64.37
2022-09-11T21:03:34.837Z,64.18
2022-09-11T21:06:08.956Z,64.42
2022-09-11T21:08:36.442Z,64.09
2022-09-11T21:11:04.753Z,64.60
2022-09-11T21:13:39.456Z,64.86
2022-09-11T21:16:09.759Z,64.92
2022-09-11T21:18:38.368Z,65.09
2022-09-11T21:21:06.597Z,66.09
2022-09-11T21:23:34.024Z,66.63
2022-09-11T21:26:01.451Z,65.71
2022-09-11T21:28:28.487Z,65.73
2022-09-11T21:30:57.447Z,66.16
2022-09-11T21:33:25.291Z,66.13
2022-09-11T21:35:53.683Z,66.85
2022-09-11T21:38:25.183Z,66.90
2022-09-11T21:40:53.059Z,66.88
2022-09-11T21:43:20.180Z,67.22
2022-09-11T21:45:47.536Z,67.38
2022-09-11T21:48:14.777Z,67.41
2022-09-11T21:50:41.687Z,67.74
2022-09-11T21:53:10.569Z,67.86
2022-09-11T21:55:39.565Z,68.21
2022-09-11T21:58:07.366Z,68.29
2022-09-11T22:00:39.442Z,68.39
2022-09-11T22:03:10.333Z,68.79
2022-09-11T22:05:43.061Z,69.10
2022-09-11T22:08:12.120Z,69.15
2022-09-11T22:10:43.855Z,69.10
2022-09-11T22:13:11.579Z,69.56
2022-09-11T22:15:42.886Z,69.58
2022-09-11T22:18:09.948Z,69.82
2022-09-11T22:20:37.705Z,69.88
2022-09-11T22:23:05.084Z,70.16
2022-09-11T22:25:31.962Z,71.10
2022-09-11T22:27:59.121Z,71.10
2022-09-11T22:30:28.167Z,71.07
2022-09-11T22:32:54.986Z,71.60
2022-09-11T22:35:22.247Z,71.41
2022-09-11T22:37:49.171Z,71.63
2022-09-11T22:40:16.225Z,71.96
2022-09-11T22:42:43.300Z,72.29
2022-09-11T22:45:10.582Z,72.42
2022-09-11T22:47:37.533Z,72.76
2022-09-11T22:50:05.036Z,73.35
2022-09-11T22:52:32.103Z,73.33
2022-09-11T22:54:58.974Z,73.30
2022-09-11T22:57:28.987Z,73.55
2022-09-11T22:59:56.225Z,74.36
2022-09-11T23:02:24.191Z,73.89
2022-09-11T23:05:09.923Z,74.22
2022-09-11T23:07:37.123Z,74.47
2022-09-11T23:10:04.669Z,74.75
2022-09-11T23:12:31.550Z,75.00
2022-09-11T23:14:58.436Z,74.78
2022-09-11T23:17:25.602Z,75.22
2022-09-11T23:19:52.720Z,75.42
2022-09-11T23:22:20.079Z,75.46
2022-09-11T23:24:47.180Z,75.74
2022-09-11T23:27:14.245Z,75.83
2022-09-11T23:29:41.206Z,76.06
2022-09-11T23:32:08.209Z,75.90
2022-09-11T23:34:35.545Z,76.40
2022-09-11T23:37:02.358Z,76.70
2022-09-11T23:39:29.424Z,77.17
2022-09-11T23:41:56.370Z,77.17
2022-09-11T23:44:23.503Z,77.73
2022-09-11T23:46:50.582Z,77.20
2022-09-11T23:49:17.411Z,77.28
2022-09-11T23:51:44.259Z,77.37
2022-09-11T23:54:11.364Z,77.34
2022-09-11T23:56:38.207Z,77.23
2022-09-11T23:59:05.101Z,77.32
